sensor_id;sensor_type;location;lat;lon;timestamp;P1;durP1;ratioP1;P2;durP2;ratioP2
14316;SDS011;7242;50.858;6.586;2023-01-10T00:00:55;8.13;;;2.20;;
14316;SDS011;7242;50.858;6.586;2023-01-10T00:03:56;6.00;;;2.13;;
14316;SDS011;7242;50.858;6.586;2023-01-10T00:06:57;7.83;;;2.37;;
14316;SDS011;7242;50.858;6.586;2023-01-10T00:09:58;7.73;;;2.20;;
14316;SDS011;7242;50.858;6.586;2023-01-10T00:13:00;9.37;;;2.53;;
14316;SDS011;7242;50.858;6.586;2023-01-10T00:16:19;8.67;;;2.50;;
14316;SDS011;7242;50.858;6.586;2023-01-10T00:19:20;6.00;;;2.40;;
14316;SDS011;7242;50.858;6.586;2023-01-10T00:22:21;7.87;;;2.77;;
14316;SDS011;7242;50.858;6.586;2023-01-10T00:25:24;9.70;;;2.80;;
14316;SDS011;7242;50.858;6.586;2023-01-10T00:28:26;9.10;;;3.00;;
14316;SDS011;7242;50.858;6.586;2023-01-10T00:31:27;8.27;;;2.97;;
14316;SDS011;7242;50.858;6.586;2023-01-10T00:34:28;8.87;;;2.73;;
14316;SDS011;7242;50.858;6.586;2023-01-10T00:37:30;12.20;;;3.50;;
14316;SDS011;7242;50.858;6.586;2023-01-10T00:40:32;7.33;;;2.13;;
14316;SDS011;7242;50.858;6.586;2023-01-10T00:43:33;9.07;;;2.77;;
14316;SDS011;7242;50.858;6.586;2023-01-10T00:46:53;9.73;;;2.77;;
14316;SDS011;7242;50.858;6.586;2023-01-10T00:49:54;7.90;;;2.73;;
14316;SDS011;7242;50.858;6.586;2023-01-10T00:52:55;9.97;;;2.73;;
14316;SDS011;7242;50.858;6.586;2023-01-10T00:55:56;11.00;;;2.83;;
14316;SDS011;7242;50.858;6.586;2023-01-10T00:58:58;10.90;;;3.10;;
14316;SDS011;7242;50.858;6.586;2023-01-10T01:01:59;10.97;;;2.83;;
14316;SDS011;7242;50.858;6.586;2023-01-10T01:05:00;7.57;;;2.50;;
14316;SDS011;7242;50.858;6.586;2023-01-10T01:08:01;7.17;;;2.70;;
14316;SDS011;7242;50.858;6.586;2023-01-10T01:11:03;9.03;;;2.80;;
14316;SDS011;7242;50.858;6.586;2023-01-10T01:14:04;10.97;;;3.20;;
14316;SDS011;7242;50.858;6.586;2023-01-10T01:17:05;10.43;;;2.87;;
14316;SDS011;7242;50.858;6.586;2023-01-10T01:20:06;6.67;;;2.57;;
14316;SDS011;7242;50.858;6.586;2023-01-10T01:23:08;11.23;;;2.90;;
14316;SDS011;7242;50.858;6.586;2023-01-10T01:26:09;11.07;;;2.63;;
14316;SDS011;7242;50.858;6.586;2023-01-10T01:29:10;7.97;;;2.73;;
14316;SDS011;7242;50.858;6.586;2023-01-10T01:32:12;8.00;;;2.87;;
14316;SDS011;7242;50.858;6.586;2023-01-10T01:35:14;7.17;;;2.77;;
14316;SDS011;7242;50.858;6.586;2023-01-10T01:38:16;8.50;;;2.90;;
14316;SDS011;7242;50.858;6.586;2023-01-10T01:41:17;12.97;;;3.77;;
14316;SDS011;7242;50.858;6.586;2023-01-10T01:44:37;7.90;;;2.80;;
14316;SDS011;7242;50.858;6.586;2023-01-10T01:47:49;9.50;;;3.00;;
14316;SDS011;7242;50.858;6.586;2023-01-10T01:51:08;8.60;;;3.07;;
14316;SDS011;7242;50.858;6.586;2023-01-10T01:54:14;8.43;;;3.30;;
14316;SDS011;7242;50.858;6.586;2023-01-10T01:57:16;6.97;;;2.77;;
14316;SDS011;7242;50.858;6.586;2023-01-10T02:00:19;8.13;;;2.60;;
14316;SDS011;7242;50.858;6.586;2023-01-10T02:03:20;7.77;;;2.60;;
14316;SDS011;7242;50.858;6.586;2023-01-10T02:06:22;7.50;;;2.53;;
14316;SDS011;7242;50.858;6.586;2023-01-10T02:09:27;10.53;;;3.33;;
14316;SDS011;7242;50.858;6.586;2023-01-10T02:12:33;11.00;;;3.00;;
14316;SDS011;7242;50.858;6.586;2023-01-10T02:15:34;8.47;;;2.83;;
14316;SDS011;7242;50.858;6.586;2023-01-10T02:18:36;6.87;;;2.50;;
14316;SDS011;7242;50.858;6.586;2023-01-10T02:21:42;7.40;;;2.37;;
14316;SDS011;7242;50.858;6.586;2023-01-10T02:41:34;8.97;;;2.80;;
14316;SDS011;7242;50.858;6.586;2023-01-10T02:45:18;9.50;;;2.80;;
14316;SDS011;7242;50.858;6.586;2023-01-10T02:48:21;8.27;;;2.80;;
14316;SDS011;7242;50.858;6.586;2023-01-10T02:51:23;8.67;;;2.70;;
14316;SDS011;7242;50.858;6.586;2023-01-10T02:54:26;12.67;;;3.00;;
14316;SDS011;7242;50.858;6.586;2023-01-10T02:57:47;9.50;;;3.10;;
14316;SDS011;7242;50.858;6.586;2023-01-10T03:11:01;11.13;;;2.93;;
14316;SDS011;7242;50.858;6.586;2023-01-10T03:14:25;11.50;;;3.37;;
14316;SDS011;7242;50.858;6.586;2023-01-10T03:17:28;7.57;;;2.70;;
14316;SDS011;7242;50.858;6.586;2023-01-10T03:20:31;9.60;;;2.60;;
14316;SDS011;7242;50.858;6.586;2023-01-10T03:23:33;8.60;;;2.73;;
14316;SDS011;7242;50.858;6.586;2023-01-10T03:26:46;11.53;;;2.93;;
14316;SDS011;7242;50.858;6.586;2023-01-10T03:32:50;16.17;;;3.47;;
14316;SDS011;7242;50.858;6.586;2023-01-10T03:39:17;15.37;;;3.00;;
14316;SDS011;7242;50.858;6.586;2023-01-10T03:45:27;11.77;;;3.00;;
14316;SDS011;7242;50.858;6.586;2023-01-10T03:48:34;15.73;;;4.07;;
14316;SDS011;7242;50.858;6.586;2023-01-10T03:51:37;10.67;;;3.43;;
14316;SDS011;7242;50.858;6.586;2023-01-10T03:54:43;9.73;;;2.70;;
14316;SDS011;7242;50.858;6.586;2023-01-10T03:57:45;12.97;;;3.03;;
14316;SDS011;7242;50.858;6.586;2023-01-10T04:00:48;13.43;;;3.40;;
14316;SDS011;7242;50.858;6.586;2023-01-10T04:03:49;10.13;;;3.20;;
14316;SDS011;7242;50.858;6.586;2023-01-10T04:06:50;13.77;;;3.33;;
14316;SDS011;7242;50.858;6.586;2023-01-10T04:09:51;11.83;;;3.07;;
14316;SDS011;7242;50.858;6.586;2023-01-10T04:12:53;12.40;;;3.80;;
14316;SDS011;7242;50.858;6.586;2023-01-10T04:15:54;12.53;;;3.10;;
14316;SDS011;7242;50.858;6.586;2023-01-10T04:18:55;9.00;;;2.70;;
14316;SDS011;7242;50.858;6.586;2023-01-10T04:21:55;11.87;;;3.20;;
14316;SDS011;7242;50.858;6.586;2023-01-10T04:24:58;10.97;;;3.07;;
14316;SDS011;7242;50.858;6.586;2023-01-10T04:27:59;14.87;;;3.13;;
14316;SDS011;7242;50.858;6.586;2023-01-10T04:31:00;11.17;;;2.83;;
14316;SDS011;7242;50.858;6.586;2023-01-10T04:34:01;13.60;;;2.80;;
14316;SDS011;7242;50.858;6.586;2023-01-10T04:37:03;11.73;;;2.90;;
14316;SDS011;7242;50.858;6.586;2023-01-10T04:40:04;13.97;;;3.00;;
14316;SDS011;7242;50.858;6.586;2023-01-10T04:43:05;14.50;;;3.23;;
14316;SDS011;7242;50.858;6.586;2023-01-10T04:46:07;12.97;;;3.10;;
14316;SDS011;7242;50.858;6.586;2023-01-10T04:49:09;13.20;;;3.13;;
14316;SDS011;7242;50.858;6.586;2023-01-10T04:52:10;14.17;;;3.07;;
14316;SDS011;7242;50.858;6.586;2023-01-10T04:55:11;15.73;;;3.47;;
14316;SDS011;7242;50.858;6.586;2023-01-10T04:58:12;13.87;;;3.00;;
14316;SDS011;7242;50.858;6.586;2023-01-10T05:01:17;8.43;;;2.57;;
14316;SDS011;7242;50.858;6.586;2023-01-10T05:04:20;13.13;;;3.23;;
14316;SDS011;7242;50.858;6.586;2023-01-10T05:07:21;12.23;;;3.30;;
14316;SDS011;7242;50.858;6.586;2023-01-10T05:10:23;11.20;;;3.13;;
14316;SDS011;7242;50.858;6.586;2023-01-10T05:13:24;15.87;;;3.60;;
14316;SDS011;7242;50.858;6.586;2023-01-10T05:16:26;14.33;;;3.37;;
14316;SDS011;7242;50.858;6.586;2023-01-10T05:19:28;13.87;;;3.03;;
14316;SDS011;7242;50.858;6.586;2023-01-10T05:22:29;11.87;;;3.47;;
14316;SDS011;7242;50.858;6.586;2023-01-10T05:25:30;19.10;;;3.40;;
14316;SDS011;7242;50.858;6.586;2023-01-10T05:28:31;16.23;;;3.23;;
14316;SDS011;7242;50.858;6.586;2023-01-10T05:31:32;12.23;;;3.40;;
14316;SDS011;7242;50.858;6.586;2023-01-10T05:34:34;15.97;;;3.77;;
14316;SDS011;7242;50.858;6.586;2023-01-10T05:37:35;15.90;;;3.37;;
14316;SDS011;7242;50.858;6.586;2023-01-10T05:40:36;12.83;;;3.47;;
14316;SDS011;7242;50.858;6.586;2023-01-10T05:43:38;17.40;;;3.57;;
14316;SDS011;7242;50.858;6.586;2023-01-10T05:46:40;10.50;;;3.40;;
14316;SDS011;7242;50.858;6.586;2023-01-10T05:49:42;15.10;;;3.10;;
14316;SDS011;7242;50.858;6.586;2023-01-10T05:52:43;16.17;;;3.07;;
14316;SDS011;7242;50.858;6.586;2023-01-10T05:55:54;15.00;;;3.53;;
14316;SDS011;7242;50.858;6.586;2023-01-10T05:58:56;17.33;;;3.77;;
14316;SDS011;7242;50.858;6.586;2023-01-10T06:01:57;18.10;;;3.70;;
14316;SDS011;7242;50.858;6.586;2023-01-10T06:04:58;18.50;;;3.60;;
14316;SDS011;7242;50.858;6.586;2023-01-10T06:07:59;17.73;;;3.90;;
14316;SDS011;7242;50.858;6.586;2023-01-10T06:11:01;18.20;;;3.50;;
14316;SDS011;7242;50.858;6.586;2023-01-10T06:14:02;14.93;;;3.07;;
14316;SDS011;7242;50.858;6.586;2023-01-10T06:17:04;13.93;;;4.07;;
14316;SDS011;7242;50.858;6.586;2023-01-10T06:20:09;14.30;;;3.50;;
14316;SDS011;7242;50.858;6.586;2023-01-10T06:23:11;16.37;;;3.33;;
14316;SDS011;7242;50.858;6.586;2023-01-10T06:26:12;18.53;;;3.90;;
14316;SDS011;7242;50.858;6.586;2023-01-10T06:29:13;15.90;;;3.70;;
14316;SDS011;7242;50.858;6.586;2023-01-10T06:32:14;16.97;;;3.60;;
14316;SDS011;7242;50.858;6.586;2023-01-10T06:35:15;16.90;;;4.30;;
14316;SDS011;7242;50.858;6.586;2023-01-10T06:38:20;19.17;;;4.00;;
14316;SDS011;7242;50.858;6.586;2023-01-10T06:41:21;17.03;;;3.60;;
14316;SDS011;7242;50.858;6.586;2023-01-10T06:44:22;13.60;;;3.70;;
14316;SDS011;7242;50.858;6.586;2023-01-10T06:47:23;20.50;;;4.37;;
14316;SDS011;7242;50.858;6.586;2023-01-10T06:50:24;13.57;;;3.40;;
14316;SDS011;7242;50.858;6.586;2023-01-10T06:53:26;19.23;;;4.33;;
14316;SDS011;7242;50.858;6.586;2023-01-10T06:56:27;16.73;;;3.83;;
14316;SDS011;7242;50.858;6.586;2023-01-10T06:59:28;19.63;;;4.23;;
14316;SDS011;7242;50.858;6.586;2023-01-10T07:02:29;18.33;;;3.83;;
14316;SDS011;7242;50.858;6.586;2023-01-10T07:05:32;18.37;;;4.17;;
14316;SDS011;7242;50.858;6.586;2023-01-10T07:08:33;27.00;;;4.47;;
14316;SDS011;7242;50.858;6.586;2023-01-10T07:11:34;18.83;;;4.13;;
14316;SDS011;7242;50.858;6.586;2023-01-10T07:14:36;16.57;;;3.50;;
14316;SDS011;7242;50.858;6.586;2023-01-10T07:17:37;16.70;;;3.53;;
14316;SDS011;7242;50.858;6.586;2023-01-10T07:20:38;21.27;;;3.93;;
14316;SDS011;7242;50.858;6.586;2023-01-10T07:23:39;16.87;;;3.63;;
14316;SDS011;7242;50.858;6.586;2023-01-10T07:26:41;16.77;;;3.60;;
14316;SDS011;7242;50.858;6.586;2023-01-10T07:29:43;15.87;;;3.67;;
14316;SDS011;7242;50.858;6.586;2023-01-10T07:32:44;16.57;;;3.43;;
14316;SDS011;7242;50.858;6.586;2023-01-10T07:35:45;15.33;;;3.23;;
14316;SDS011;7242;50.858;6.586;2023-01-10T07:38:46;16.33;;;3.73;;
14316;SDS011;7242;50.858;6.586;2023-01-10T07:41:47;24.10;;;4.17;;
14316;SDS011;7242;50.858;6.586;2023-01-10T07:44:49;16.93;;;4.60;;
14316;SDS011;7242;50.858;6.586;2023-01-10T07:47:50;20.07;;;4.00;;
14316;SDS011;7242;50.858;6.586;2023-01-10T07:50:59;18.47;;;3.47;;
14316;SDS011;7242;50.858;6.586;2023-01-10T07:54:02;15.90;;;3.40;;
14316;SDS011;7242;50.858;6.586;2023-01-10T07:57:03;20.93;;;4.20;;
14316;SDS011;7242;50.858;6.586;2023-01-10T08:00:04;15.97;;;4.27;;
14316;SDS011;7242;50.858;6.586;2023-01-10T08:03:06;15.83;;;3.87;;
14316;SDS011;7242;50.858;6.586;2023-01-10T08:06:07;18.47;;;3.57;;
14316;SDS011;7242;50.858;6.586;2023-01-10T08:09:12;17.00;;;3.93;;
14316;SDS011;7242;50.858;6.586;2023-01-10T08:12:13;19.37;;;3.80;;
14316;SDS011;7242;50.858;6.586;2023-01-10T08:15:14;13.03;;;3.67;;
14316;SDS011;7242;50.858;6.586;2023-01-10T08:18:15;17.03;;;3.63;;
14316;SDS011;7242;50.858;6.586;2023-01-10T08:21:16;14.50;;;3.60;;
14316;SDS011;7242;50.858;6.586;2023-01-10T08:24:17;16.43;;;3.67;;
14316;SDS011;7242;50.858;6.586;2023-01-10T08:27:19;18.43;;;3.67;;
14316;SDS011;7242;50.858;6.586;2023-01-10T08:30:20;15.03;;;3.50;;
14316;SDS011;7242;50.858;6.586;2023-01-10T08:33:22;24.53;;;4.13;;
14316;SDS011;7242;50.858;6.586;2023-01-10T08:36:23;17.93;;;4.10;;
14316;SDS011;7242;50.858;6.586;2023-01-10T08:39:24;12.87;;;3.80;;
14316;SDS011;7242;50.858;6.586;2023-01-10T08:42:26;12.47;;;3.43;;
14316;SDS011;7242;50.858;6.586;2023-01-10T08:45:27;17.00;;;3.70;;
14316;SDS011;7242;50.858;6.586;2023-01-10T08:48:28;21.13;;;4.00;;
14316;SDS011;7242;50.858;6.586;2023-01-10T08:51:29;15.97;;;3.70;;
14316;SDS011;7242;50.858;6.586;2023-01-10T08:54:31;22.47;;;3.97;;
14316;SDS011;7242;50.858;6.586;2023-01-10T08:57:32;15.23;;;3.40;;
14316;SDS011;7242;50.858;6.586;2023-01-10T09:00:33;16.97;;;3.63;;
14316;SDS011;7242;50.858;6.586;2023-01-10T09:03:35;18.17;;;3.80;;
14316;SDS011;7242;50.858;6.586;2023-01-10T09:06:36;16.40;;;3.37;;
14316;SDS011;7242;50.858;6.586;2023-01-10T09:09:37;12.27;;;3.40;;
14316;SDS011;7242;50.858;6.586;2023-01-10T09:12:38;15.73;;;3.97;;
14316;SDS011;7242;50.858;6.586;2023-01-10T09:15:55;16.43;;;3.40;;
14316;SDS011;7242;50.858;6.586;2023-01-10T09:18:56;18.23;;;3.70;;
14316;SDS011;7242;50.858;6.586;2023-01-10T09:21:57;16.83;;;3.40;;
14316;SDS011;7242;50.858;6.586;2023-01-10T09:24:59;16.93;;;3.50;;
14316;SDS011;7242;50.858;6.586;2023-01-10T09:28:01;14.33;;;3.20;;
14316;SDS011;7242;50.858;6.586;2023-01-10T09:31:02;13.13;;;3.40;;
14316;SDS011;7242;50.858;6.586;2023-01-10T09:34:04;17.87;;;3.40;;
14316;SDS011;7242;50.858;6.586;2023-01-10T09:37:05;17.00;;;3.73;;
14316;SDS011;7242;50.858;6.586;2023-01-10T09:40:07;16.10;;;3.80;;
14316;SDS011;7242;50.858;6.586;2023-01-10T09:52:42;21.07;;;3.63;;
14316;SDS011;7242;50.858;6.586;2023-01-10T09:55:56;16.20;;;3.23;;
14316;SDS011;7242;50.858;6.586;2023-01-10T09:58:59;15.30;;;3.77;;
14316;SDS011;7242;50.858;6.586;2023-01-10T10:02:44;12.83;;;3.13;;
14316;SDS011;7242;50.858;6.586;2023-01-10T10:05:27;12.87;;;3.17;;
14316;SDS011;7242;50.858;6.586;2023-01-10T10:08:28;16.37;;;3.43;;
14316;SDS011;7242;50.858;6.586;2023-01-10T10:11:35;19.87;;;3.63;;
14316;SDS011;7242;50.858;6.586;2023-01-10T10:21:00;14.60;;;3.23;;
14316;SDS011;7242;50.858;6.586;2023-01-10T10:28:04;12.47;;;2.87;;
14316;SDS011;7242;50.858;6.586;2023-01-10T10:31:19;17.03;;;3.83;;
14316;SDS011;7242;50.858;6.586;2023-01-10T10:34:28;17.33;;;3.43;;
14316;SDS011;7242;50.858;6.586;2023-01-10T10:37:37;16.17;;;2.93;;
14316;SDS011;7242;50.858;6.586;2023-01-10T10:40:42;10.67;;;3.00;;
14316;SDS011;7242;50.858;6.586;2023-01-10T10:43:44;12.40;;;3.00;;
14316;SDS011;7242;50.858;6.586;2023-01-10T10:46:47;15.00;;;3.60;;
14316;SDS011;7242;50.858;6.586;2023-01-10T10:52:49;20.03;;;3.40;;
14316;SDS011;7242;50.858;6.586;2023-01-10T10:55:50;10.13;;;2.80;;
14316;SDS011;7242;50.858;6.586;2023-01-10T10:58:53;9.67;;;2.93;;
14316;SDS011;7242;50.858;6.586;2023-01-10T11:01:55;13.40;;;2.77;;
14316;SDS011;7242;50.858;6.586;2023-01-10T11:05:01;11.70;;;2.90;;
14316;SDS011;7242;50.858;6.586;2023-01-10T11:08:04;13.33;;;2.80;;
14316;SDS011;7242;50.858;6.586;2023-01-10T11:14:38;12.83;;;3.23;;
14316;SDS011;7242;50.858;6.586;2023-01-10T11:17:37;12.33;;;2.90;;
14316;SDS011;7242;50.858;6.586;2023-01-10T11:24:00;14.03;;;3.33;;
14316;SDS011;7242;50.858;6.586;2023-01-10T11:27:03;15.10;;;2.77;;
14316;SDS011;7242;50.858;6.586;2023-01-10T11:30:08;14.53;;;3.00;;
14316;SDS011;7242;50.858;6.586;2023-01-10T11:33:18;11.33;;;3.00;;
14316;SDS011;7242;50.858;6.586;2023-01-10T11:36:20;15.20;;;2.73;;
14316;SDS011;7242;50.858;6.586;2023-01-10T11:39:21;14.60;;;3.10;;
14316;SDS011;7242;50.858;6.586;2023-01-10T11:48:25;15.07;;;3.10;;
14316;SDS011;7242;50.858;6.586;2023-01-10T11:51:27;11.30;;;2.80;;
14316;SDS011;7242;50.858;6.586;2023-01-10T11:54:28;12.93;;;3.10;;
14316;SDS011;7242;50.858;6.586;2023-01-10T11:57:31;15.30;;;3.03;;
14316;SDS011;7242;50.858;6.586;2023-01-10T12:00:39;11.43;;;3.37;;
14316;SDS011;7242;50.858;6.586;2023-01-10T12:03:41;11.47;;;2.60;;
14316;SDS011;7242;50.858;6.586;2023-01-10T12:06:50;9.73;;;2.33;;
14316;SDS011;7242;50.858;6.586;2023-01-10T12:09:55;13.43;;;2.63;;
14316;SDS011;7242;50.858;6.586;2023-01-10T12:12:58;14.30;;;2.93;;
14316;SDS011;7242;50.858;6.586;2023-01-10T12:16:23;9.80;;;2.97;;
14316;SDS011;7242;50.858;6.586;2023-01-10T12:19:22;12.40;;;3.30;;
14316;SDS011;7242;50.858;6.586;2023-01-10T12:22:26;13.67;;;3.20;;
14316;SDS011;7242;50.858;6.586;2023-01-10T12:25:40;11.97;;;3.20;;
14316;SDS011;7242;50.858;6.586;2023-01-10T12:28:48;11.50;;;2.87;;
14316;SDS011;7242;50.858;6.586;2023-01-10T12:31:50;13.47;;;3.00;;
14316;SDS011;7242;50.858;6.586;2023-01-10T12:34:58;13.40;;;3.20;;
14316;SDS011;7242;50.858;6.586;2023-01-10T12:41:01;10.80;;;2.73;;
14316;SDS011;7242;50.858;6.586;2023-01-10T12:44:10;13.07;;;2.90;;
14316;SDS011;7242;50.858;6.586;2023-01-10T12:50:20;12.37;;;3.17;;
14316;SDS011;7242;50.858;6.586;2023-01-10T12:53:29;8.97;;;2.93;;
14316;SDS011;7242;50.858;6.586;2023-01-10T12:56:31;9.57;;;2.30;;
14316;SDS011;7242;50.858;6.586;2023-01-10T12:59:36;10.87;;;2.63;;
14316;SDS011;7242;50.858;6.586;2023-01-10T13:02:41;8.23;;;2.40;;
14316;SDS011;7242;50.858;6.586;2023-01-10T13:05:44;9.50;;;2.80;;
14316;SDS011;7242;50.858;6.586;2023-01-10T13:08:48;11.80;;;2.87;;
14316;SDS011;7242;50.858;6.586;2023-01-10T13:15:05;11.03;;;2.37;;
14316;SDS011;7242;50.858;6.586;2023-01-10T13:18:24;7.33;;;2.57;;
14316;SDS011;7242;50.858;6.586;2023-01-10T13:21:26;11.80;;;2.80;;
14316;SDS011;7242;50.858;6.586;2023-01-10T13:24:27;15.10;;;2.70;;
14316;SDS011;7242;50.858;6.586;2023-01-10T13:27:33;8.93;;;2.90;;
14316;SDS011;7242;50.858;6.586;2023-01-10T13:30:35;8.67;;;2.60;;
14316;SDS011;7242;50.858;6.586;2023-01-10T13:33:49;10.10;;;2.60;;
14316;SDS011;7242;50.858;6.586;2023-01-10T13:36:58;12.30;;;3.23;;
14316;SDS011;7242;50.858;6.586;2023-01-10T13:40:00;12.37;;;2.70;;
14316;SDS011;7242;50.858;6.586;2023-01-10T13:49:40;13.60;;;2.90;;
14316;SDS011;7242;50.858;6.586;2023-01-10T13:52:41;12.57;;;3.00;;
14316;SDS011;7242;50.858;6.586;2023-01-10T13:58:52;9.40;;;2.90;;
14316;SDS011;7242;50.858;6.586;2023-01-10T14:02:16;10.03;;;2.80;;
14316;SDS011;7242;50.858;6.586;2023-01-10T14:05:30;11.50;;;2.80;;
14316;SDS011;7242;50.858;6.586;2023-01-10T14:08:32;11.83;;;2.83;;
14316;SDS011;7242;50.858;6.586;2023-01-10T14:14:48;16.63;;;4.53;;
14316;SDS011;7242;50.858;6.586;2023-01-10T14:18:34;14.27;;;3.60;;
14316;SDS011;7242;50.858;6.586;2023-01-10T14:21:23;12.73;;;3.27;;
14316;SDS011;7242;50.858;6.586;2023-01-10T14:27:45;10.87;;;2.80;;
14316;SDS011;7242;50.858;6.586;2023-01-10T14:30:53;10.00;;;3.23;;
14316;SDS011;7242;50.858;6.586;2023-01-10T14:34:03;12.67;;;3.60;;
14316;SDS011;7242;50.858;6.586;2023-01-10T14:37:07;11.97;;;2.83;;
14316;SDS011;7242;50.858;6.586;2023-01-10T14:40:56;12.23;;;2.50;;
14316;SDS011;7242;50.858;6.586;2023-01-10T14:43:39;11.10;;;3.20;;
14316;SDS011;7242;50.858;6.586;2023-01-10T14:49:51;12.67;;;3.30;;
14316;SDS011;7242;50.858;6.586;2023-01-10T14:52:54;12.27;;;3.10;;
14316;SDS011;7242;50.858;6.586;2023-01-10T14:55:55;10.90;;;2.97;;
14316;SDS011;7242;50.858;6.586;2023-01-10T14:58:57;12.73;;;3.13;;
14316;SDS011;7242;50.858;6.586;2023-01-10T15:02:00;12.87;;;3.30;;
14316;SDS011;7242;50.858;6.586;2023-01-10T15:05:24;7.40;;;2.90;;
14316;SDS011;7242;50.858;6.586;2023-01-10T15:08:27;15.50;;;5.60;;
14316;SDS011;7242;50.858;6.586;2023-01-10T15:11:29;10.53;;;3.50;;
14316;SDS011;7242;50.858;6.586;2023-01-10T15:14:32;18.63;;;3.53;;
14316;SDS011;7242;50.858;6.586;2023-01-10T15:17:33;9.13;;;2.80;;
14316;SDS011;7242;50.858;6.586;2023-01-10T15:20:35;11.73;;;3.17;;
14316;SDS011;7242;50.858;6.586;2023-01-10T15:23:39;14.67;;;2.73;;
14316;SDS011;7242;50.858;6.586;2023-01-10T15:26:41;10.50;;;2.40;;
14316;SDS011;7242;50.858;6.586;2023-01-10T15:29:42;14.67;;;3.40;;
14316;SDS011;7242;50.858;6.586;2023-01-10T15:32:47;13.37;;;3.40;;
14316;SDS011;7242;50.858;6.586;2023-01-10T15:35:49;12.20;;;3.40;;
14316;SDS011;7242;50.858;6.586;2023-01-10T15:38:50;11.07;;;3.30;;
14316;SDS011;7242;50.858;6.586;2023-01-10T15:41:56;14.37;;;3.20;;
14316;SDS011;7242;50.858;6.586;2023-01-10T15:45:05;7.90;;;2.80;;
14316;SDS011;7242;50.858;6.586;2023-01-10T15:54:33;8.10;;;3.20;;
14316;SDS011;7242;50.858;6.586;2023-01-10T15:57:35;7.47;;;2.63;;
14316;SDS011;7242;50.858;6.586;2023-01-10T16:00:36;6.33;;;2.30;;
14316;SDS011;7242;50.858;6.586;2023-01-10T16:03:44;5.67;;;1.90;;
14316;SDS011;7242;50.858;6.586;2023-01-10T16:06:45;8.83;;;2.00;;
14316;SDS011;7242;50.858;6.586;2023-01-10T16:09:59;6.03;;;1.80;;
14316;SDS011;7242;50.858;6.586;2023-01-10T16:13:08;6.57;;;2.10;;
14316;SDS011;7242;50.858;6.586;2023-01-10T16:16:27;4.83;;;1.77;;
14316;SDS011;7242;50.858;6.586;2023-01-10T16:19:28;5.53;;;1.83;;
14316;SDS011;7242;50.858;6.586;2023-01-10T16:22:29;4.73;;;1.93;;
14316;SDS011;7242;50.858;6.586;2023-01-10T16:25:33;6.63;;;1.80;;
14316;SDS011;7242;50.858;6.586;2023-01-10T16:28:35;4.50;;;2.00;;
14316;SDS011;7242;50.858;6.586;2023-01-10T16:31:37;6.53;;;1.97;;
14316;SDS011;7242;50.858;6.586;2023-01-10T16:34:38;2.80;;;1.60;;
14316;SDS011;7242;50.858;6.586;2023-01-10T16:37:39;4.03;;;1.60;;
14316;SDS011;7242;50.858;6.586;2023-01-10T16:40:46;4.03;;;1.40;;
14316;SDS011;7242;50.858;6.586;2023-01-10T16:43:48;3.97;;;1.60;;
14316;SDS011;7242;50.858;6.586;2023-01-10T16:46:49;6.40;;;2.80;;
14316;SDS011;7242;50.858;6.586;2023-01-10T16:49:52;5.50;;;2.50;;
14316;SDS011;7242;50.858;6.586;2023-01-10T16:52:53;5.30;;;2.40;;
14316;SDS011;7242;50.858;6.586;2023-01-10T16:55:54;3.57;;;1.90;;
14316;SDS011;7242;50.858;6.586;2023-01-10T16:58:55;5.50;;;2.17;;
14316;SDS011;7242;50.858;6.586;2023-01-10T17:01:57;2.93;;;1.70;;
14316;SDS011;7242;50.858;6.586;2023-01-10T17:04:58;3.33;;;1.70;;
14316;SDS011;7242;50.858;6.586;2023-01-10T17:07:59;2.63;;;1.60;;
14316;SDS011;7242;50.858;6.586;2023-01-10T17:11:01;2.70;;;1.40;;
14316;SDS011;7242;50.858;6.586;2023-01-10T17:14:03;1.83;;;1.07;;
14316;SDS011;7242;50.858;6.586;2023-01-10T17:17:05;2.77;;;1.30;;
14316;SDS011;7242;50.858;6.586;2023-01-10T17:20:06;3.23;;;1.23;;
14316;SDS011;7242;50.858;6.586;2023-01-10T17:23:09;2.90;;;1.20;;
14316;SDS011;7242;50.858;6.586;2023-01-10T17:26:15;3.73;;;1.30;;
14316;SDS011;7242;50.858;6.586;2023-01-10T17:29:18;1.83;;;1.00;;
14316;SDS011;7242;50.858;6.586;2023-01-10T17:32:19;2.43;;;1.23;;
14316;SDS011;7242;50.858;6.586;2023-01-10T17:35:20;1.50;;;1.00;;
14316;SDS011;7242;50.858;6.586;2023-01-10T17:38:26;1.77;;;1.20;;
14316;SDS011;7242;50.858;6.586;2023-01-10T17:41:27;1.77;;;0.90;;
14316;SDS011;7242;50.858;6.586;2023-01-10T17:44:28;2.30;;;0.80;;
14316;SDS011;7242;50.858;6.586;2023-01-10T17:47:29;1.23;;;0.70;;
14316;SDS011;7242;50.858;6.586;2023-01-10T17:50:31;1.23;;;0.70;;
14316;SDS011;7242;50.858;6.586;2023-01-10T17:53:32;1.10;;;0.70;;
14316;SDS011;7242;50.858;6.586;2023-01-10T17:56:33;1.57;;;1.27;;
14316;SDS011;7242;50.858;6.586;2023-01-10T17:59:34;0.93;;;0.80;;
14316;SDS011;7242;50.858;6.586;2023-01-10T18:02:35;1.73;;;1.00;;
14316;SDS011;7242;50.858;6.586;2023-01-10T18:05:37;1.27;;;1.13;;
14316;SDS011;7242;50.858;6.586;2023-01-10T18:08:39;1.47;;;0.67;;
14316;SDS011;7242;50.858;6.586;2023-01-10T18:11:40;1.20;;;0.70;;
14316;SDS011;7242;50.858;6.586;2023-01-10T18:14:41;1.43;;;0.80;;
14316;SDS011;7242;50.858;6.586;2023-01-10T18:17:42;2.33;;;0.70;;
14316;SDS011;7242;50.858;6.586;2023-01-10T18:20:44;1.27;;;0.60;;
14316;SDS011;7242;50.858;6.586;2023-01-10T18:23:45;0.53;;;0.53;;
14316;SDS011;7242;50.858;6.586;2023-01-10T18:26:48;1.47;;;0.70;;
14316;SDS011;7242;50.858;6.586;2023-01-10T18:29:49;1.73;;;0.60;;
14316;SDS011;7242;50.858;6.586;2023-01-10T18:32:51;0.60;;;0.50;;
14316;SDS011;7242;50.858;6.586;2023-01-10T18:35:53;0.40;;;0.40;;
14316;SDS011;7242;50.858;6.586;2023-01-10T18:38:56;0.67;;;0.60;;
14316;SDS011;7242;50.858;6.586;2023-01-10T18:41:57;0.63;;;0.57;;
14316;SDS011;7242;50.858;6.586;2023-01-10T18:44:59;0.80;;;0.60;;
14316;SDS011;7242;50.858;6.586;2023-01-10T18:48:00;0.93;;;0.67;;
14316;SDS011;7242;50.858;6.586;2023-01-10T18:51:04;0.87;;;0.50;;
14316;SDS011;7242;50.858;6.586;2023-01-10T18:54:08;1.13;;;0.70;;
14316;SDS011;7242;50.858;6.586;2023-01-10T18:57:09;2.37;;;0.73;;
14316;SDS011;7242;50.858;6.586;2023-01-10T19:00:10;1.17;;;0.70;;
14316;SDS011;7242;50.858;6.586;2023-01-10T19:03:12;1.03;;;0.57;;
14316;SDS011;7242;50.858;6.586;2023-01-10T19:06:14;1.10;;;0.70;;
14316;SDS011;7242;50.858;6.586;2023-01-10T19:09:15;0.83;;;0.60;;
14316;SDS011;7242;50.858;6.586;2023-01-10T19:12:18;0.80;;;0.63;;
14316;SDS011;7242;50.858;6.586;2023-01-10T19:15:19;1.97;;;0.70;;
14316;SDS011;7242;50.858;6.586;2023-01-10T19:18:21;1.67;;;0.60;;
14316;SDS011;7242;50.858;6.586;2023-01-10T19:21:22;2.20;;;0.97;;
14316;SDS011;7242;50.858;6.586;2023-01-10T19:24:25;2.23;;;1.60;;
14316;SDS011;7242;50.858;6.586;2023-01-10T19:27:32;2.63;;;0.70;;
14316;SDS011;7242;50.858;6.586;2023-01-10T19:30:33;1.13;;;0.60;;
14316;SDS011;7242;50.858;6.586;2023-01-10T19:33:37;1.03;;;0.80;;
14316;SDS011;7242;50.858;6.586;2023-01-10T19:36:40;1.00;;;0.90;;
14316;SDS011;7242;50.858;6.586;2023-01-10T19:39:40;1.07;;;0.70;;
14316;SDS011;7242;50.858;6.586;2023-01-10T19:42:42;1.30;;;0.60;;
14316;SDS011;7242;50.858;6.586;2023-01-10T19:45:43;0.47;;;0.47;;
14316;SDS011;7242;50.858;6.586;2023-01-10T19:48:44;1.33;;;0.50;;
14316;SDS011;7242;50.858;6.586;2023-01-10T19:51:47;0.50;;;0.50;;
14316;SDS011;7242;50.858;6.586;2023-01-10T19:54:50;1.30;;;0.47;;
14316;SDS011;7242;50.858;6.586;2023-01-10T19:57:51;0.90;;;0.50;;
14316;SDS011;7242;50.858;6.586;2023-01-10T20:00:53;0.50;;;0.50;;
14316;SDS011;7242;50.858;6.586;2023-01-10T20:03:55;0.60;;;0.60;;
14316;SDS011;7242;50.858;6.586;2023-01-10T20:06:56;0.50;;;0.50;;
14316;SDS011;7242;50.858;6.586;2023-01-10T20:09:57;1.33;;;0.93;;
14316;SDS011;7242;50.858;6.586;2023-01-10T20:12:58;0.73;;;0.60;;
14316;SDS011;7242;50.858;6.586;2023-01-10T20:16:00;0.40;;;0.40;;
14316;SDS011;7242;50.858;6.586;2023-01-10T20:19:01;0.43;;;0.43;;